Hauptseite
METAR-TAF:

METAR-TAF

Flughäfen :

Laval, Frankreich

Flugplatz Laval-Entrammes

Breite: 48-01-56N, Länge: 000-44-34W, Höhe: 101 m

Beobachtung

Neuester Wetterbericht von vor 26 Minuten, um 11:30 UTC
Wind 7 kt aus Süd/Südwest, variierte zwischen Süd und West/Südwest
Temperatur 12°C
Luftfeuchtigkeit 100%
Luftdruck 1023 hPa
Sichtweite 10 km oder mehr
Geschlossene Wolkendecke in der Höhe von 400 ft

METAR: LFOV 231130Z AUTO 21007KT 180V240 9999 OVC004 12/12 Q1023

Zeit: 12:56 (11:56 UTC)


TAF: fehlend

Wetterbeobachtungen und Prognosen von mehr als 4000 Flughäfen (METAR und TAF Bericht).

Die verfügbaren Stationen werden durch gelbe und rote Markierungen auf der Karte dargestellt.

Führen Sie die Maus auf sie, um den Namen der Station zu sehen.

Darauf klicken, um die Beobachtung von Wetterbeobachtungen und Prognosen zu sehen.

Um die Karte zu ändern : klicken Sie auf den grünen Tasten mit einem schwarzen Kreuz Zum Vergrößern, auf den grünen Button mit einem Gedankenstrich zu verkleinern, oder auf die grünen Pfeile für benachbarte Karten.


METAR-TAF: